Time;durP1;ratioP1;P1;durP2;ratioP2;P2;SDS_P1;SDS_P2;PMS_P1;PMS_P2;Temp;Humidity;BMP_temperature;BMP_pressure;BME280_temperature;BME280_humidity;BME280_pressure;Samples;Min_cycle;Max_cycle;Signal;HPM_P1;HPM_P2
2024/01/03 00:02:22;;;;;;;;;0.00;0.00;;;;;11.21;77.37;97097.38;5099068;28;8822;-58
2024/01/03 00:04:49;;;;;;;;;0.00;0.00;;;;;11.24;77.16;97080.97;5097369;28;8813;-58
2024/01/03 00:07:18;;;;;;;;;0.00;0.00;;;;;11.24;77.32;97112.13;5100940;28;8822;-59
2024/01/03 00:09:45;;;;;;;;;0.00;0.00;;;;;11.26;77.15;97102.09;5116845;28;8820;-59
2024/01/03 00:12:13;;;;;;;;;0.00;0.00;;;;;11.29;77.17;97099.88;5111437;28;8929;-59
2024/01/03 00:14:41;;;;;;;;;0.00;0.00;;;;;11.31;76.48;97091.69;5097329;28;8861;-58
2024/01/03 00:17:09;;;;;;;;;0.00;0.00;;;;;11.15;76.51;97095.47;5097220;28;8848;-59
2024/01/03 00:19:39;;;;;;;;;0.00;0.00;;;;;11.10;76.36;97099.75;5096923;28;8826;-58
2024/01/03 00:22:07;;;;;;;;;0.00;0.00;;;;;11.15;76.64;97098.13;5092790;28;8836;-58
2024/01/03 00:24:35;;;;;;;;;0.00;0.00;;;;;11.22;76.11;97096.34;5092420;28;8824;-57
2024/01/03 00:27:03;;;;;;;;;0.00;0.00;;;;;11.21;76.39;97070.72;5117581;28;8834;-59
2024/01/03 00:29:31;;;;;;;;;0.00;0.00;;;;;11.22;75.68;97107.00;5117768;28;8819;-58
2024/01/03 00:31:59;;;;;;;;;1.00;1.00;;;;;11.11;75.53;97115.53;5117094;28;8826;-59
2024/01/03 00:34:26;;;;;;;;;0.00;0.00;;;;;10.91;76.61;97130.53;5117422;28;9501;-60
2024/01/03 00:36:54;;;;;;;;;0.00;0.00;;;;;10.73;76.74;97126.69;5117219;28;8804;-59
2024/01/03 00:39:22;;;;;;;;;0.00;0.00;;;;;10.55;77.21;97121.81;5103824;28;8840;-58
2024/01/03 00:41:50;;;;;;;;;0.00;0.00;;;;;10.43;77.92;97128.69;5076532;28;8832;-57
2024/01/03 00:44:18;;;;;;;;;1.75;0.00;;;;;10.35;77.97;97128.81;5075756;28;8930;-59
2024/01/03 00:46:45;;;;;;;;;0.00;0.00;;;;;10.24;78.74;97133.81;5075669;28;8863;-58
2024/01/03 00:49:13;;;;;;;;;1.00;0.00;;;;;10.15;78.20;97145.56;5076046;28;8842;-57
2024/01/03 00:51:43;;;;;;;;;0.00;0.00;;;;;10.15;78.47;97149.06;5076092;28;8824;-59
2024/01/03 00:54:11;;;;;;;;;0.00;0.00;;;;;10.22;78.56;97146.44;5076241;28;8816;-59
2024/01/03 00:56:38;;;;;;;;;1.00;0.00;;;;;10.30;78.12;97149.81;5077100;28;8828;-60
2024/01/03 00:59:06;;;;;;;;;0.00;0.00;;;;;10.43;77.49;97139.34;5076253;28;8835;-58
2024/01/03 01:01:34;;;;;;;;;1.00;0.75;;;;;10.56;77.60;97146.63;5087955;28;8810;-60
2024/01/03 01:04:02;;;;;;;;;0.50;0.50;;;;;10.61;76.91;97150.34;5096498;28;8830;-58
2024/01/03 01:06:30;;;;;;;;;0.00;0.00;;;;;10.60;77.07;97148.69;5095421;28;9491;-58
2024/01/03 01:08:59;;;;;;;;;0.00;0.00;;;;;10.59;77.10;97156.88;5099338;28;8837;-60
2024/01/03 01:11:26;;;;;;;;;0.00;0.00;;;;;10.48;77.84;97178.66;5095470;28;8972;-60
2024/01/03 01:13:55;;;;;;;;;0.00;0.00;;;;;10.31;77.70;97170.09;5095597;28;8865;-58
2024/01/03 01:16:22;;;;;;;;;0.50;0.00;;;;;10.15;78.54;97186.28;5096650;28;8810;-59
2024/01/03 01:18:50;;;;;;;;;0.00;0.00;;;;;10.05;78.95;97187.56;5097969;28;8846;-58
2024/01/03 01:21:18;;;;;;;;;0.00;0.00;;;;;9.98;78.89;97189.28;5096050;28;8832;-58
2024/01/03 01:23:46;;;;;;;;;0.00;0.00;;;;;9.98;79.16;97203.44;5095052;28;8854;-58
2024/01/03 01:26:14;;;;;;;;;0.50;0.00;;;;;9.94;79.18;97206.66;5095391;28;9495;-60
2024/01/03 01:28:41;;;;;;;;;1.00;1.00;;;;;9.87;78.85;97197.75;5095818;28;8826;-60
2024/01/03 01:31:09;;;;;;;;;0.75;0.75;;;;;9.80;79.23;97205.63;5094378;28;8828;-59
2024/01/03 01:33:37;;;;;;;;;0.00;0.00;;;;;9.80;79.53;97192.34;5095804;28;8842;-59
2024/01/03 01:36:05;;;;;;;;;0.00;0.00;;;;;9.82;79.77;97208.94;5094817;28;8814;-57
2024/01/03 01:38:33;;;;;;;;;0.50;0.50;;;;;9.82;79.62;97208.94;5094716;28;8838;-59
2024/01/03 01:41:01;;;;;;;;;0.75;0.00;;;;;9.80;80.09;97205.63;5099630;28;8826;-59
2024/01/03 01:43:28;;;;;;;;;0.25;0.00;;;;;9.78;80.11;97223.59;5092428;28;8886;-60
2024/01/03 01:45:56;;;;;;;;;0.00;0.00;;;;;9.72;80.23;97228.81;5098710;28;9000;-60
2024/01/03 01:48:24;;;;;;;;;0.00;0.00;;;;;9.60;80.58;97223.16;5082773;28;8830;-60
2024/01/03 01:50:52;;;;;;;;;0.00;0.00;;;;;9.49;80.58;97230.75;5084921;28;8816;-60
2024/01/03 01:53:19;;;;;;;;;0.00;0.00;;;;;9.40;81.38;97232.66;5116634;28;9483;-60
2024/01/03 01:55:47;;;;;;;;;0.00;0.00;;;;;9.32;81.98;97229.22;5116003;28;8828;-59
2024/01/03 01:58:15;;;;;;;;;0.75;0.75;;;;;9.28;81.65;97215.50;5116448;28;8827;-60
2024/01/03 02:00:43;;;;;;;;;1.00;0.00;;;;;9.25;81.64;97218.50;5116143;28;8811;-59
2024/01/03 02:03:11;;;;;;;;;0.00;0.00;;;;;9.21;82.07;97217.25;5110524;28;8810;-59
2024/01/03 02:05:39;;;;;;;;;0.00;0.00;;;;;9.24;82.20;97239.94;5077745;28;8836;-59
2024/01/03 02:08:07;;;;;;;;;0.50;0.50;;;;;9.31;82.30;97224.94;5075211;28;8974;-60
2024/01/03 02:10:35;;;;;;;;;0.25;0.25;;;;;9.44;82.23;97231.28;5075276;28;8808;-59
2024/01/03 02:13:03;;;;;;;;;0.00;0.00;;;;;9.61;81.62;97221.28;5075766;28;8856;-59
2024/01/03 02:15:30;;;;;;;;;0.00;0.00;;;;;9.69;81.15;97240.63;5075439;28;8820;-59
2024/01/03 02:17:59;;;;;;;;;1.00;0.00;;;;;9.81;80.90;97236.50;5075365;28;8881;-58
2024/01/03 02:20:27;;;;;;;;;0.00;0.00;;;;;9.94;80.61;97234.03;5076822;28;8832;-59
2024/01/03 02:22:54;;;;;;;;;0.00;0.00;;;;;10.05;80.24;97230.13;5079484;28;8855;-57
2024/01/03 02:25:22;;;;;;;;;0.50;0.00;;;;;10.12;80.36;97239.00;5078795;28;8832;-58
2024/01/03 02:27:50;;;;;;;;;0.50;0.25;;;;;10.15;80.41;97231.47;5079150;28;8820;-58
2024/01/03 02:30:18;;;;;;;;;0.00;0.00;;;;;10.09;79.97;97218.91;5079140;28;8840;-59
2024/01/03 02:32:46;;;;;;;;;0.00;0.00;;;;;10.01;80.59;97231.47;5078804;28;8817;-57
2024/01/03 02:35:14;;;;;;;;;0.00;0.00;;;;;9.97;80.66;97228.38;5079285;28;8832;-59
2024/01/03 02:37:41;;;;;;;;;0.00;0.00;;;;;9.99;80.57;97215.72;5079567;28;8832;-58
2024/01/03 02:40:11;;;;;;;;;0.00;0.00;;;;;10.04;80.40;97228.47;5088135;28;8822;-57
2024/01/03 02:42:39;;;;;;;;;0.00;0.00;;;;;10.12;80.09;97210.59;5098962;28;8837;-59
2024/01/03 02:45:06;;;;;;;;;0.00;0.00;;;;;10.18;80.04;97204.50;5098885;28;8856;-58
2024/01/03 02:47:34;;;;;;;;;0.00;0.00;;;;;10.09;80.02;97202.97;5095168;28;8814;-58
2024/01/03 02:50:02;;;;;;;;;0.00;0.00;;;;;9.96;80.81;97226.69;5097519;28;8840;-57
2024/01/03 02:52:30;;;;;;;;;0.00;0.00;;;;;9.85;80.82;97221.00;5098052;28;8890;-59
2024/01/03 02:54:57;;;;;;;;;0.50;0.50;;;;;9.75;80.90;97218.66;5097507;28;8832;-57
2024/01/03 02:57:25;;;;;;;;;0.50;0.50;;;;;9.68;81.33;97239.00;5110040;28;8814;-59
2024/01/03 02:59:53;;;;;;;;;0.00;0.00;;;;;9.63;81.48;97233.41;5098928;28;8829;-59
2024/01/03 03:02:21;;;;;;;;;0.00;0.00;;;;;9.58;81.80;97238.41;5114543;28;8828;-59
2024/01/03 03:04:50;;;;;;;;;1.50;0.00;;;;;9.54;82.10;97231.00;5119075;28;8836;-58
2024/01/03 03:07:18;;;;;;;;;0.00;0.00;;;;;9.50;82.10;97238.50;5119316;28;8828;-58
2024/01/03 03:09:46;;;;;;;;;0.00;0.00;;;;;9.46;82.54;97228.44;5119314;28;8815;-58
2024/01/03 03:12:14;;;;;;;;;0.00;0.00;;;;;9.46;82.39;97234.59;5108082;28;8830;-58
2024/01/03 03:14:41;;;;;;;;;3.00;1.00;;;;;9.45;82.27;97227.63;5112510;28;8839;-58
2024/01/03 03:17:09;;;;;;;;;0.00;0.00;;;;;9.47;82.50;97262.78;5119275;28;8950;-58
2024/01/03 03:19:37;;;;;;;;;0.00;0.00;;;;;9.47;82.37;97256.63;5119028;28;8850;-59
2024/01/03 03:22:04;;;;;;;;;0.00;0.00;;;;;9.46;82.25;97239.88;5118234;28;8816;-58
2024/01/03 03:24:33;;;;;;;;;0.00;0.00;;;;;9.49;82.17;97250.13;5119010;28;9746;-57
2024/01/03 03:27:00;;;;;;;;;0.00;0.00;;;;;9.57;82.33;97273.97;5118513;28;8824;-59
2024/01/03 03:29:28;;;;;;;;;0.00;0.00;;;;;9.74;81.75;97248.91;5103595;28;8862;-60
2024/01/03 03:31:56;;;;;;;;;0.00;0.00;;;;;9.92;81.35;97249.34;5077074;28;8808;-59
2024/01/03 03:34:23;;;;;;;;;0.50;0.00;;;;;10.07;81.23;97244.88;5077880;28;8834;-58
2024/01/03 03:36:51;;;;;;;;;0.00;0.00;;;;;10.22;80.47;97250.16;5078223;28;8832;-59
2024/01/03 03:39:19;;;;;;;;;0.00;0.00;;;;;10.34;80.28;97259.31;5077153;28;9557;-59
2024/01/03 03:41:47;;;;;;;;;0.00;0.00;;;;;10.41;79.52;97269.03;5076994;28;8828;-56
2024/01/03 03:44:14;;;;;;;;;0.00;0.00;;;;;10.47;79.49;97247.00;5077277;28;8891;-58
2024/01/03 03:46:42;;;;;;;;;0.00;0.00;;;;;10.57;79.30;97252.88;5077179;28;8855;-59
2024/01/03 03:49:10;;;;;;;;;0.00;0.00;;;;;10.60;79.17;97251.63;5077082;28;8820;-58
2024/01/03 03:51:38;;;;;;;;;2.25;0.00;;;;;10.62;79.10;97250.44;5077112;28;8820;-58
2024/01/03 03:54:06;;;;;;;;;0.00;0.00;;;;;10.63;78.79;97244.09;5076899;28;9500;-58
2024/01/03 03:56:33;;;;;;;;;0.25;0.25;;;;;10.66;78.99;97261.53;5077410;28;8842;-59
2024/01/03 03:59:01;;;;;;;;;0.00;0.00;;;;;10.69;78.82;97275.28;5089509;28;8838;-57
2024/01/03 04:01:29;;;;;;;;;0.25;0.00;;;;;10.71;78.83;97259.94;5099055;28;8834;-56
2024/01/03 04:03:56;;;;;;;;;0.00;0.00;;;;;10.72;78.38;97255.47;5096132;28;8948;-58
2024/01/03 04:06:24;;;;;;;;;3.00;1.00;;;;;10.72;78.07;97261.63;5095444;28;8826;-58
2024/01/03 04:08:52;;;;;;;;;0.00;0.00;;;;;10.73;78.33;97255.28;5095851;28;8826;-59
2024/01/03 04:11:20;;;;;;;;;0.00;0.00;;;;;10.77;78.25;97266.38;5094600;28;8923;-57
2024/01/03 04:13:48;;;;;;;;;0.00;0.00;;;;;10.77;78.08;97266.38;5104473;28;8824;-57
2024/01/03 04:16:16;;;;;;;;;0.00;0.00;;;;;10.79;78.35;97282.97;5116977;28;8828;-57
2024/01/03 04:18:43;;;;;;;;;0.00;0.00;;;;;10.79;77.62;97278.50;5105009;28;8826;-58
2024/01/03 04:21:12;;;;;;;;;0.00;0.00;;;;;10.79;78.42;97282.97;5083420;28;8945;-58
2024/01/03 04:23:40;;;;;;;;;0.00;0.00;;;;;10.79;78.15;97289.16;5076202;28;8836;-59
2024/01/03 04:26:08;;;;;;;;;0.00;0.00;;;;;10.80;77.74;97288.13;5075918;28;8968;-59
2024/01/03 04:28:35;;;;;;;;;1.50;0.50;;;;;10.80;77.46;97293.44;5075671;28;8962;-59
2024/01/03 04:31:03;;;;;;;;;0.00;0.00;;;;;10.79;77.80;97281.16;5100980;28;8796;-60
2024/01/03 04:33:31;;;;;;;;;0.00;0.00;;;;;10.77;78.00;97317.75;5116477;28;8827;-59
2024/01/03 04:35:59;;;;;;;;;0.75;0.00;;;;;10.71;77.88;97294.56;5117504;28;8912;-59
2024/01/03 04:38:27;;;;;;;;;0.75;0.75;;;;;10.64;77.76;97291.03;5085511;28;8881;-59
2024/01/03 04:40:54;;;;;;;;;0.00;0.00;;;;;10.55;78.19;97300.09;5076634;28;8824;-59
2024/01/03 04:43:22;;;;;;;;;0.00;0.00;;;;;10.49;78.23;97298.22;5076510;28;8913;-59
2024/01/03 04:45:50;;;;;;;;;0.00;0.00;;;;;10.41;78.07;97322.22;5075641;28;8855;-57
2024/01/03 04:48:17;;;;;;;;;0.00;0.00;;;;;10.40;78.38;97301.97;5075422;28;8854;-58
2024/01/03 04:50:45;;;;;;;;;0.50;0.00;;;;;10.42;78.47;97323.06;5075520;28;8828;-59
2024/01/03 04:53:13;;;;;;;;;0.00;0.00;;;;;10.42;78.59;97313.25;5075996;28;8820;-58
2024/01/03 04:55:41;;;;;;;;;0.00;0.00;;;;;10.45;78.36;97326.19;5076605;28;8848;-59
2024/01/03 04:58:08;;;;;;;;;0.00;0.00;;;;;10.43;78.69;97325.56;5075702;28;8856;-60
2024/01/03 05:00:36;;;;;;;;;0.00;0.00;;;;;10.40;78.52;97320.59;5075501;28;8871;-60
2024/01/03 05:03:04;;;;;;;;;0.50;0.50;;;;;10.36;78.73;97314.00;5075292;28;9490;-60
2024/01/03 05:05:32;;;;;;;;;0.00;0.00;;;;;10.35;78.42;97312.34;5074700;28;8843;-60
2024/01/03 05:08:00;;;;;;;;;0.00;0.00;;;;;10.37;78.46;97297.03;5090471;28;8830;-58
2024/01/03 05:10:28;;;;;;;;;0.00;0.00;;;;;10.42;78.64;97313.25;5095330;28;8826;-59
2024/01/03 05:12:56;;;;;;;;;0.00;0.00;;;;;10.46;78.49;97313.72;5094998;28;8838;-60
2024/01/03 05:15:23;;;;;;;;;0.00;0.00;;;;;10.48;78.31;97309.84;5092119;28;9062;-58
2024/01/03 05:17:51;;;;;;;;;0.00;0.00;;;;;10.52;78.79;97307.63;5094160;28;8836;-59
2024/01/03 05:20:19;;;;;;;;;0.00;0.00;;;;;10.52;78.45;97313.78;5094133;28;8822;-60
2024/01/03 05:22:47;;;;;;;;;0.00;0.00;;;;;10.56;78.40;97324.88;5096892;28;8814;-58
2024/01/03 05:25:15;;;;;;;;;0.00;0.00;;;;;10.57;78.42;97315.88;5097932;28;8841;-59
2024/01/03 05:27:43;;;;;;;;;0.00;0.00;;;;;10.59;78.44;97330.66;5096470;28;8826;-60
2024/01/03 05:30:10;;;;;;;;;0.75;0.75;;;;;10.62;78.20;97314.31;5102441;28;8882;-60
2024/01/03 05:32:38;;;;;;;;;0.00;0.00;;;;;10.67;78.35;97319.06;5115781;28;8857;-59
2024/01/03 05:35:07;;;;;;;;;0.00;0.00;;;;;10.70;78.36;97316.84;5095719;28;8845;-59
2024/01/03 05:37:34;;;;;;;;;0.00;0.00;;;;;10.73;77.85;97326.31;5094962;28;8834;-59
2024/01/03 05:40:02;;;;;;;;;0.00;0.00;;;;;10.76;77.65;97336.59;5094389;28;8952;-60
2024/01/03 05:42:30;;;;;;;;;0.00;0.00;;;;;10.79;78.18;97331.72;5094776;28;8862;-60
2024/01/03 05:44:58;;;;;;;;;0.00;0.00;;;;;10.81;77.44;97319.06;5094679;28;8833;-59
2024/01/03 05:47:26;;;;;;;;;0.00;0.00;;;;;10.81;77.45;97335.03;5116037;28;9489;-57
2024/01/03 05:49:54;;;;;;;;;0.50;0.50;;;;;10.82;77.63;97341.16;5115995;28;8816;-59
2024/01/03 05:52:22;;;;;;;;;1.00;1.00;;;;;10.84;77.57;97334.63;5115368;28;8832;-57
2024/01/03 05:54:49;;;;;;;;;0.00;0.00;;;;;10.83;77.40;97338.31;5115857;28;8848;-60
2024/01/03 05:57:19;;;;;;;;;1.00;0.00;;;;;10.84;77.29;97333.84;5120974;28;8828;-60
2024/01/03 05:59:47;;;;;;;;;0.50;0.50;;;;;10.80;77.48;97336.03;5120134;28;8815;-58
2024/01/03 06:02:14;;;;;;;;;0.00;0.00;;;;;10.80;77.79;97337.88;5108294;28;8821;-59
2024/01/03 06:04:43;;;;;;;;;0.00;0.00;;;;;10.80;77.34;97345.84;5079476;28;8839;-60
2024/01/03 06:07:11;;;;;;;;;0.00;0.00;;;;;10.79;77.13;97339.72;5078704;28;8836;-60
2024/01/03 06:09:40;;;;;;;;;0.00;0.00;;;;;10.73;77.23;97327.16;5079302;28;9576;-60
2024/01/03 06:12:08;;;;;;;;;0.00;0.00;;;;;10.53;77.63;97341.19;5079193;28;8848;-59
2024/01/03 06:14:39;;;;;;;;;0.00;0.00;;;;;10.28;78.55;97348.66;5079081;28;8920;-60
2024/01/03 06:17:07;;;;;;;;;0.00;0.00;;;;;10.10;78.71;97350.03;5078803;28;8890;-57
2024/01/03 06:19:35;;;;;;;;;0.00;0.00;;;;;10.03;79.04;97357.09;5079238;28;8851;-57
2024/01/03 06:22:02;;;;;;;;;0.00;0.00;;;;;10.00;79.10;97370.69;5084526;28;8826;-58
2024/01/03 06:24:30;;;;;;;;;0.50;0.50;;;;;10.02;79.35;97353.56;5099021;28;8848;-58
2024/01/03 06:26:58;;;;;;;;;0.00;0.00;;;;;9.97;79.31;97355.13;5098138;28;8837;-59
2024/01/03 06:29:26;;;;;;;;;0.00;0.00;;;;;9.82;79.79;97351.63;5097459;28;8830;-58
2024/01/03 06:31:54;;;;;;;;;0.00;0.00;;;;;9.68;79.87;97363.88;5099079;28;8810;-59
2024/01/03 06:34:22;;;;;;;;;0.25;0.25;;;;;9.61;80.79;97359.44;5098278;28;8858;-59
2024/01/03 06:36:50;;;;;;;;;0.00;0.00;;;;;9.56;80.94;97354.66;5099080;28;8810;-58
2024/01/03 06:39:18;;;;;;;;;0.00;0.00;;;;;9.55;81.04;97355.69;5098601;28;8988;-57
2024/01/03 06:41:46;;;;;;;;;0.00;0.00;;;;;9.59;80.39;97357.00;5106635;28;8812;-58
2024/01/03 06:44:13;;;;;;;;;0.00;0.00;;;;;9.70;81.08;97345.06;5118537;28;9571;-59
2024/01/03 06:46:42;;;;;;;;;0.00;0.00;;;;;9.82;80.33;97357.78;5103593;28;8838;-57
2024/01/03 06:49:12;;;;;;;;;0.00;0.00;;;;;9.84;79.93;97366.38;5097461;28;8858;-59
2024/01/03 06:51:40;;;;;;;;;0.50;0.50;;;;;9.75;80.56;97356.84;5098725;28;8821;-58
2024/01/03 06:54:08;;;;;;;;;0.50;0.50;;;;;9.67;80.98;97370.19;5085823;28;9490;-59
2024/01/03 06:56:35;;;;;;;;;0.25;0.25;;;;;9.60;80.85;97357.78;5078028;28;8851;-58
2024/01/03 06:59:03;;;;;;;;;0.00;0.00;;;;;9.52;81.14;97366.69;5108987;28;8929;-59
2024/01/03 07:01:31;;;;;;;;;0.00;0.00;;;;;9.50;81.78;97352.72;5118905;28;8816;-57
2024/01/03 07:04:01;;;;;;;;;0.00;0.00;;;;;9.47;81.52;97361.06;5119226;28;8950;-57
2024/01/03 07:06:29;;;;;;;;;0.75;0.75;;;;;9.48;81.75;97368.03;5117160;28;8893;-57
2024/01/03 07:08:57;;;;;;;;;0.00;0.00;;;;;9.46;82.15;97378.00;5119058;28;9605;-60
2024/01/03 07:11:25;;;;;;;;;0.00;0.00;;;;;9.42;82.02;97375.88;5086877;28;9568;-58
2024/01/03 07:13:53;;;;;;;;;0.50;0.50;;;;;9.36;81.81;97372.13;5077561;28;8867;-59
2024/01/03 07:16:20;;;;;;;;;0.00;0.00;;;;;9.31;82.24;97369.16;5077419;28;8955;-58
2024/01/03 07:18:48;;;;;;;;;0.75;0.75;;;;;9.26;82.49;97374.16;5077703;28;8859;-59
2024/01/03 07:21:16;;;;;;;;;0.75;0.75;;;;;9.22;82.48;97349.00;5077133;28;8836;-57
2024/01/03 07:23:44;;;;;;;;;1.50;1.50;;;;;9.17;82.60;97359.31;5076908;28;8832;-57
2024/01/03 07:26:12;;;;;;;;;0.00;0.00;;;;;9.16;82.94;97355.00;5077032;28;8852;-59
2024/01/03 07:28:40;;;;;;;;;0.00;0.00;;;;;9.16;82.89;97351.50;5077822;28;8901;-59
2024/01/03 07:31:07;;;;;;;;;0.25;0.25;;;;;9.15;82.92;97350.69;5077748;28;8820;-59
2024/01/03 07:33:35;;;;;;;;;0.00;0.00;;;;;9.15;82.73;97341.88;5077383;28;9630;-59
2024/01/03 07:36:03;;;;;;;;;0.00;0.00;;;;;9.15;82.86;97337.41;5095949;28;8818;-59
2024/01/03 07:38:31;;;;;;;;;0.25;0.25;;;;;9.16;82.82;97344.38;5097365;28;8832;-59
2024/01/03 07:40:59;;;;;;;;;0.00;0.00;;;;;9.17;83.52;97345.19;5095799;28;8806;-56
2024/01/03 07:43:27;;;;;;;;;0.50;0.00;;;;;9.17;83.19;97335.41;5095102;28;8826;-59
2024/01/03 07:45:55;;;;;;;;;0.00;0.00;;;;;9.18;83.49;97337.06;5096840;28;8896;-58
2024/01/03 07:48:23;;;;;;;;;0.75;0.00;;;;;9.19;83.54;97324.63;5096221;28;8854;-57
2024/01/03 07:50:51;;;;;;;;;0.50;0.50;;;;;9.23;83.20;97334.69;5096599;28;8814;-59
2024/01/03 07:53:19;;;;;;;;;0.00;0.00;;;;;9.29;83.47;97338.47;5096073;28;8940;-59
2024/01/03 07:55:47;;;;;;;;;0.00;0.00;;;;;9.38;83.65;97335.56;5097339;28;8829;-56
2024/01/03 07:58:14;;;;;;;;;0.00;0.00;;;;;9.53;83.32;97341.75;5096618;28;8822;-57
2024/01/03 08:00:42;;;;;;;;;0.00;0.00;;;;;9.69;82.71;97346.09;5099527;28;8834;-58
2024/01/03 08:03:10;;;;;;;;;0.00;0.00;;;;;9.83;82.47;97330.19;5095307;28;8822;-56
2024/01/03 08:05:38;;;;;;;;;0.00;0.00;;;;;9.95;82.09;97336.69;5096858;28;8984;-58
2024/01/03 08:08:06;;;;;;;;;0.25;0.00;;;;;10.04;81.92;97325.03;5096144;28;8837;-59
2024/01/03 08:10:34;;;;;;;;;0.00;0.00;;;;;10.11;81.85;97309.94;5102463;28;8812;-57
2024/01/03 08:13:02;;;;;;;;;0.00;0.00;;;;;10.21;81.27;97347.75;5117070;28;8912;-58
2024/01/03 08:15:30;;;;;;;;;1.00;0.00;;;;;10.27;80.87;97314.28;5106446;28;8941;-57
2024/01/03 08:17:58;;;;;;;;;1.50;0.50;;;;;10.27;80.75;97291.19;5092735;28;8867;-59
2024/01/03 08:20:30;;;;;;;;;0.00;0.00;;;;;10.30;80.68;97308.56;5076467;28;8816;-58
2024/01/03 08:22:58;;;;;;;;;0.00;0.00;;;;;10.28;81.08;97302.63;5076057;28;8840;-57
2024/01/03 08:25:27;;;;;;;;;0.00;0.00;;;;;10.22;81.36;97317.50;5076085;28;8917;-57
2024/01/03 08:27:54;;;;;;;;;0.00;0.00;;;;;10.12;80.97;97319.59;5100209;28;9505;-59
2024/01/03 08:30:22;;;;;;;;;1.00;1.00;;;;;10.03;81.32;97328.66;5116522;28;8835;-58
2024/01/03 08:32:51;;;;;;;;;0.00;0.00;;;;;9.87;81.99;97326.13;5115917;28;8934;-57
2024/01/03 08:35:18;;;;;;;;;1.00;1.00;;;;;9.75;82.56;97346.22;5102898;28;8832;-58
2024/01/03 08:37:47;;;;;;;;;3.00;1.00;;;;;9.66;82.34;97359.75;5075135;28;8840;-59
2024/01/03 08:40:15;;;;;;;;;0.00;0.00;;;;;9.56;82.93;97367.97;5075766;28;8820;-56
2024/01/03 08:42:43;;;;;;;;;0.25;0.25;;;;;9.47;83.01;97371.69;5075673;28;9003;-58
2024/01/03 08:45:11;;;;;;;;;0.00;0.00;;;;;9.43;83.38;97377.53;5075493;28;8974;-56
2024/01/03 08:47:39;;;;;;;;;0.00;0.00;;;;;9.39;83.49;97355.81;5075340;28;8812;-56
2024/01/03 08:50:07;;;;;;;;;0.00;0.00;;;;;9.29;83.31;97389.75;5075268;28;9384;-59
2024/01/03 08:52:35;;;;;;;;;0.00;0.00;;;;;9.22;83.50;97394.13;5075533;28;8832;-57
2024/01/03 08:55:03;;;;;;;;;0.00;0.00;;;;;9.18;84.16;97400.78;5075344;28;8840;-57
2024/01/03 08:57:31;;;;;;;;;0.00;0.00;;;;;9.16;84.28;97392.16;5075328;28;8828;-57
2024/01/03 08:59:59;;;;;;;;;0.00;0.00;;;;;9.18;84.28;97389.34;5074868;28;8846;-58
2024/01/03 09:02:28;;;;;;;;;0.00;0.00;;;;;9.22;84.39;97402.09;5075724;28;8820;-58
2024/01/03 09:04:56;;;;;;;;;0.00;0.00;;;;;9.29;84.11;97403.03;5092187;28;8826;-58
2024/01/03 09:07:24;;;;;;;;;0.00;0.00;;;;;9.35;83.71;97407.63;5094573;28;8844;-58
2024/01/03 09:09:51;;;;;;;;;0.25;0.25;;;;;9.36;84.00;97411.13;5093755;28;8860;-58
2024/01/03 09:12:21;;;;;;;;;0.00;0.00;;;;;9.29;84.26;97432.25;5094935;28;8832;-58
2024/01/03 09:14:48;;;;;;;;;0.00;0.00;;;;;9.23;83.87;97419.66;5094570;28;8854;-57
2024/01/03 09:17:16;;;;;;;;;0.00;0.00;;;;;9.21;84.16;97429.66;5097474;28;8848;-57
2024/01/03 09:19:44;;;;;;;;;0.00;0.00;;;;;9.20;83.98;97427.16;5114582;28;8824;-59
2024/01/03 09:22:12;;;;;;;;;0.00;0.00;;;;;9.17;84.89;97428.31;5109012;28;8911;-59
2024/01/03 09:24:40;;;;;;;;;0.00;0.00;;;;;9.15;84.46;97430.34;5095408;28;9557;-58
2024/01/03 09:27:08;;;;;;;;;0.00;0.00;;;;;9.15;84.52;97435.66;5081869;28;8828;-58
2024/01/03 09:29:36;;;;;;;;;0.00;0.00;;;;;9.15;84.39;97424.19;5073608;28;8836;-58
2024/01/03 09:32:03;;;;;;;;;0.00;0.00;;;;;9.14;84.43;97436.66;5074693;28;8925;-58
2024/01/03 09:34:31;;;;;;;;;0.00;0.00;;;;;9.15;84.54;97433.00;5089366;28;9450;-59
2024/01/03 09:36:59;;;;;;;;;0.00;0.00;;;;;9.16;84.55;97436.47;5115234;28;8847;-58
2024/01/03 09:39:27;;;;;;;;;0.00;0.00;;;;;9.19;84.56;97444.09;5115134;28;9693;-58
2024/01/03 09:41:55;;;;;;;;;0.00;0.00;;;;;9.20;84.51;97443.09;5115355;28;8908;-58
2024/01/03 09:44:23;;;;;;;;;0.00;0.00;;;;;9.22;84.23;97444.56;5083371;28;8860;-58
2024/01/03 09:46:51;;;;;;;;;0.00;0.00;;;;;9.24;84.55;97449.69;5074665;28;8930;-58
2024/01/03 09:49:19;;;;;;;;;0.00;0.00;;;;;9.23;84.73;97440.91;5074554;28;8832;-58
2024/01/03 09:51:48;;;;;;;;;0.00;0.00;;;;;9.24;84.31;97452.34;5074267;28;8816;-58
2024/01/03 09:54:16;;;;;;;;;1.00;1.00;;;;;9.22;84.80;97449.88;5074729;28;8913;-59
2024/01/03 09:56:44;;;;;;;;;0.00;0.00;;;;;9.21;84.49;97450.88;5074713;28;8836;-59
2024/01/03 09:59:12;;;;;;;;;0.00;0.00;;;;;9.19;84.31;97463.47;5074704;28;8863;-59
2024/01/03 10:01:40;;;;;;;;;0.00;0.00;;;;;9.17;85.08;97457.53;5075275;28;8889;-59
2024/01/03 10:04:08;;;;;;;;;0.75;0.00;;;;;9.14;85.05;97459.69;5074335;28;8844;-58
2024/01/03 10:06:36;;;;;;;;;0.00;0.00;;;;;9.11;85.17;97476.81;5074623;28;8852;-58
2024/01/03 10:09:05;;;;;;;;;0.00;0.00;;;;;9.09;84.56;97478.81;5073914;28;8855;-58
2024/01/03 10:11:33;;;;;;;;;0.00;0.00;;;;;9.09;84.42;97475.31;5085112;28;8810;-58
2024/01/03 10:14:01;;;;;;;;;2.25;0.25;;;;;9.08;84.99;97468.34;5093526;28;8850;-57
2024/01/03 10:16:29;;;;;;;;;0.00;0.00;;;;;9.08;85.33;97471.84;5093284;28;8842;-59
2024/01/03 10:18:57;;;;;;;;;0.00;0.00;;;;;9.09;85.27;97480.63;5092521;28;8870;-58
2024/01/03 10:21:24;;;;;;;;;0.00;0.00;;;;;9.11;85.12;97463.53;5091994;28;8846;-59
2024/01/03 10:23:53;;;;;;;;;0.00;0.00;;;;;9.13;84.95;97476.63;5092208;28;8841;-58
2024/01/03 10:26:21;;;;;;;;;0.00;0.00;;;;;9.13;84.90;97469.47;5090998;28;8830;-58
2024/01/03 10:28:51;;;;;;;;;0.00;0.00;;;;;9.15;84.71;97474.63;5093100;28;8901;-57
2024/01/03 10:31:19;;;;;;;;;0.00;0.00;;;;;9.20;85.06;97466.97;5092133;28;8949;-58
2024/01/03 10:33:47;;;;;;;;;0.00;0.00;;;;;9.29;85.04;97469.44;5093514;28;8826;-57
2024/01/03 10:36:29;;;;;;;;;2.00;0.00;;;;;9.47;84.36;97464.66;5094161;28;8814;-57
2024/01/03 10:38:58;;;;;;;;;0.00;0.00;;;;;9.62;83.66;97470.88;5095291;28;8945;-58
2024/01/03 10:41:26;;;;;;;;;0.00;0.00;;;;;9.81;83.67;97466.91;5103893;28;8828;-58
2024/01/03 10:43:54;;;;;;;;;0.00;0.00;;;;;9.95;83.67;97458.97;5097561;28;8875;-58
2024/01/03 10:46:22;;;;;;;;;0.00;0.00;;;;;10.06;82.73;97463.91;5096902;28;8845;-58
2024/01/03 10:48:50;;;;;;;;;0.00;0.00;;;;;10.17;82.69;97473.28;5099837;28;8812;-58
2024/01/03 10:51:18;;;;;;;;;1.50;1.50;;;;;10.26;82.42;97470.34;5082447;28;8824;-57
2024/01/03 10:53:46;;;;;;;;;0.00;0.00;;;;;10.33;81.98;97473.94;5077310;28;8953;-58
2024/01/03 10:56:14;;;;;;;;;0.00;0.00;;;;;10.38;81.42;97470.72;5109412;28;8804;-58
2024/01/03 10:58:42;;;;;;;;;0.00;0.00;;;;;10.40;82.20;97461.56;5117708;28;8924;-58
2024/01/03 11:01:10;;;;;;;;;0.00;0.00;;;;;10.42;81.76;97464.91;5117262;28;8816;-58
2024/01/03 11:03:38;;;;;;;;;0.00;0.00;;;;;10.48;81.58;97466.00;5118119;28;8847;-59
2024/01/03 11:06:06;;;;;;;;;0.00;0.00;;;;;10.61;81.26;97460.88;5117791;28;8847;-59
2024/01/03 11:08:34;;;;;;;;;0.00;0.00;;;;;10.69;80.93;97474.91;5090567;28;8959;-59
2024/01/03 11:11:02;;;;;;;;;0.00;0.00;;;;;10.78;80.81;97473.81;5077637;28;8840;-57
2024/01/03 11:13:30;;;;;;;;;0.50;0.00;;;;;10.94;80.17;97468.28;5077386;28;8859;-58
2024/01/03 11:15:58;;;;;;;;;0.25;0.25;;;;;11.06;80.16;97461.50;5076728;28;8839;-58
2024/01/03 11:18:26;;;;;;;;;0.00;0.00;;;;;11.25;79.94;97458.25;5076709;28;8836;-59
2024/01/03 11:20:54;;;;;;;;;0.00;0.00;;;;;11.31;79.69;97454.00;5076368;28;8908;-59
2024/01/03 11:23:22;;;;;;;;;0.25;0.25;;;;;11.25;79.58;97460.91;5076566;28;9548;-57
2024/01/03 11:25:51;;;;;;;;;1.50;0.00;;;;;11.24;79.84;97456.56;5076861;28;8839;-58
2024/01/03 11:28:21;;;;;;;;;0.00;0.00;;;;;11.22;79.73;97453.28;5076252;28;8844;-59
2024/01/03 11:30:48;;;;;;;;;1.00;1.00;;;;;11.20;79.40;97476.63;5075593;28;8912;-57
2024/01/03 11:33:17;;;;;;;;;0.50;0.50;;;;;11.18;79.42;97464.50;5075750;28;8920;-59
2024/01/03 11:35:45;;;;;;;;;0.00;0.00;;;;;11.18;79.49;97454.69;5076128;28;8832;-56
2024/01/03 11:38:13;;;;;;;;;0.00;0.00;;;;;11.15;79.49;97465.69;5076191;28;8827;-57
2024/01/03 11:40:41;;;;;;;;;1.00;1.00;;;;;11.07;79.21;97480.97;5076120;28;8843;-59
2024/01/03 11:43:09;;;;;;;;;0.00;0.00;;;;;10.98;79.52;97461.59;5077748;28;8852;-58
2024/01/03 11:45:37;;;;;;;;;2.50;1.00;;;;;10.94;79.65;97464.81;5096299;28;8842;-56
2024/01/03 11:48:05;;;;;;;;;0.00;0.00;;;;;10.91;79.62;97489.97;5096050;28;8842;-57
2024/01/03 11:50:34;;;;;;;;;2.50;1.00;;;;;10.82;79.68;97468.94;5093441;28;8968;-57